UAE27 OMDB-RJAA
Flight info
| Callsign | UAE27 |
|---|---|
| Flight time | N/A |
| Altitude | 33000 |
| Route | IVURO M677 LALDO B505 NADSO A777 VAXIM L301 RASKI L639 NINIM/N0500F350 L639 BPL A791 JJS Q19 CEA B465 CTG A599 LINSO/K0924S1070 A599 SGM A581 EPGAL/K0913S1130 A581 WHA R343 PK W116 JTN G327 LAMEN/N0488F370 A593 SADLI Y590 BEDAR Y591 FUE Y23 KASTE Y81 RUTAS |
| Aircraft | B77W/H-SDE1E2E3FGHIJ2J3J4J5M1RWXY/LB1D1 |
Departure
| Time | 2026-05-07 22:50 |
|---|---|
| Airport | Dubai International Airport (OMDB) |
Arrival
| Time | N/A |
|---|---|
| Airport | Narita International Airport (RJAA) |
| Time | Latitude | Longitude | Altitude | Speed | Heading |
|---|---|---|---|---|---|
| 2026-05-07 22:33 | 25.25365 | 55.35387 | 47 ft | 0 kts | 211° |
| 2026-05-07 22:42 | 25.25377 | 55.35395 | 47 ft | 3 kts | 211° |
| 2026-05-07 22:42 | 25.25394 | 55.35407 | 47 ft | 3 kts | 211° |
| 2026-05-07 22:43 | 25.25411 | 55.35419 | 47 ft | 3 kts | 211° |
| 2026-05-07 22:43 | 25.25429 | 55.35430 | 47 ft | 3 kts | 211° |
| 2026-05-07 22:43 | 25.25446 | 55.35442 | 47 ft | 3 kts | 211° |
| 2026-05-07 22:43 | 25.25464 | 55.35454 | 47 ft | 3 kts | 211° |
| 2026-05-07 22:44 | 25.25481 | 55.35466 | 47 ft | 3 kts | 211° |
| 2026-05-07 22:44 | 25.25496 | 55.35476 | 47 ft | 2 kts | 211° |
| 2026-05-07 22:44 | 25.25511 | 55.35486 | 47 ft | 3 kts | 197° |
| 2026-05-07 22:44 | 25.25526 | 55.35490 | 47 ft | 3 kts | 171° |
| 2026-05-07 22:45 | 25.25538 | 55.35487 | 47 ft | 3 kts | 140° |
| 2026-05-07 22:45 | 25.25551 | 55.35473 | 47 ft | 3 kts | 120° |
| 2026-05-07 22:45 | 25.25560 | 55.35454 | 47 ft | 3 kts | 120° |
| 2026-05-07 22:45 | 25.25566 | 55.35444 | 47 ft | 1 kts | 121° |
| 2026-05-07 22:46 | 25.25567 | 55.35442 | 47 ft | 0 kts | 121° |
| 2026-05-07 22:47 | 25.25566 | 55.35443 | 47 ft | 1 kts | 121° |
| 2026-05-07 22:47 | 25.25545 | 55.35479 | 47 ft | 9 kts | 122° |
| 2026-05-07 22:48 | 25.25508 | 55.35548 | 47 ft | 11 kts | 121° |
| 2026-05-07 22:48 | 25.25458 | 55.35639 | 47 ft | 16 kts | 121° |
| 2026-05-07 22:48 | 25.25468 | 55.35746 | 47 ft | 16 kts | 32° |
| 2026-05-07 22:48 | 25.25559 | 55.35805 | 47 ft | 15 kts | 31° |
| 2026-05-07 22:49 | 25.25584 | 55.35897 | 47 ft | 14 kts | 121° |
| 2026-05-07 22:49 | 25.25512 | 55.36026 | 47 ft | 38 kts | 122° |
| 2026-05-07 22:49 | 25.25214 | 55.36564 | 48 ft | 125 kts | 121° |
| 2026-05-07 22:49 | 25.24614 | 55.37638 | 68 ft | 198 kts | 123° |
| 2026-05-07 22:50 | 25.23864 | 55.38970 | 776 ft | 205 kts | 123° |
| 2026-05-07 22:50 | 25.23116 | 55.40319 | 1792 ft | 206 kts | 122° |
| 2026-05-07 22:50 | 25.22360 | 55.41701 | 2424 ft | 215 kts | 122° |
| 2026-05-07 22:50 | 25.21563 | 55.43171 | 2750 ft | 234 kts | 122° |
| 2026-05-07 22:51 | 25.20709 | 55.44791 | 3082 ft | 251 kts | 117° |
| 2026-05-07 22:51 | 25.20133 | 55.46603 | 3783 ft | 251 kts | 103° |
| 2026-05-07 22:51 | 25.19934 | 55.48507 | 4508 ft | 251 kts | 93° |
| 2026-05-07 22:51 | 25.19923 | 55.50477 | 4963 ft | 265 kts | 90° |
| 2026-05-07 22:52 | 25.19942 | 55.52574 | 5380 ft | 280 kts | 90° |
| 2026-05-07 22:52 | 25.19946 | 55.54728 | 6105 ft | 281 kts | 90° |
| 2026-05-07 22:52 | 25.19950 | 55.56896 | 6873 ft | 281 kts | 90° |
| 2026-05-07 22:52 | 25.19965 | 55.59038 | 7710 ft | 277 kts | 88° |
| 2026-05-07 22:53 | 25.20380 | 55.61091 | 8413 ft | 277 kts | 65° |
| 2026-05-07 22:53 | 25.21548 | 55.62823 | 8792 ft | 288 kts | 45° |
| 2026-05-07 22:53 | 25.22895 | 55.64214 | 9208 ft | 296 kts | 43° |
| 2026-05-07 22:53 | 25.24323 | 55.65654 | 9759 ft | 301 kts | 41° |
| 2026-05-07 22:54 | 25.25918 | 55.67188 | 10289 ft | 310 kts | 40° |
| 2026-05-07 22:54 | 25.27611 | 55.68768 | 10601 ft | 327 kts | 40° |
| 2026-05-07 22:54 | 25.29396 | 55.70435 | 10882 ft | 345 kts | 40° |
| 2026-05-07 22:54 | 25.31271 | 55.72199 | 11152 ft | 362 kts | 41° |
| 2026-05-07 22:55 | 25.33065 | 55.74218 | 11439 ft | 375 kts | 53° |
| 2026-05-07 22:55 | 25.34321 | 55.76771 | 11944 ft | 382 kts | 69° |
| 2026-05-07 22:55 | 25.35175 | 55.79568 | 12513 ft | 386 kts | 70° |
| 2026-05-07 22:55 | 25.36109 | 55.82366 | 13077 ft | 390 kts | 72° |
| 2026-05-07 22:56 | 25.36717 | 55.85303 | 13678 ft | 395 kts | 82° |
| 2026-05-07 22:56 | 25.36912 | 55.88339 | 14299 ft | 397 kts | 88° |
| 2026-05-07 22:56 | 25.37018 | 55.91407 | 14836 ft | 401 kts | 90° |
| 2026-05-07 22:56 | 25.36915 | 55.94501 | 15405 ft | 405 kts | 94° |
| 2026-05-07 22:57 | 25.36589 | 55.97600 | 15997 ft | 408 kts | 98° |
| 2026-05-07 22:57 | 25.36058 | 56.00693 | 16566 ft | 411 kts | 102° |
| 2026-05-07 22:57 | 25.35362 | 56.03804 | 17144 ft | 413 kts | 104° |
| 2026-05-07 22:57 | 25.34650 | 56.06852 | 17680 ft | 416 kts | 104° |
| 2026-05-07 22:58 | 25.33960 | 56.09972 | 18203 ft | 420 kts | 103° |
| 2026-05-07 22:58 | 25.33285 | 56.13127 | 18671 ft | 424 kts | 103° |
| 2026-05-07 22:58 | 25.32721 | 56.16388 | 19136 ft | 428 kts | 98° |
| 2026-05-07 22:58 | 25.32371 | 56.19673 | 19571 ft | 433 kts | 95° |
| 2026-05-07 22:59 | 25.32127 | 56.23000 | 19993 ft | 437 kts | 94° |
| 2026-05-07 22:59 | 25.31892 | 56.26318 | 20412 ft | 441 kts | 95° |
| 2026-05-07 22:59 | 25.31619 | 56.29703 | 20840 ft | 444 kts | 95° |
| 2026-05-07 22:59 | 25.31327 | 56.33161 | 21244 ft | 448 kts | 95° |
| 2026-05-07 23:00 | 25.31036 | 56.36600 | 21618 ft | 452 kts | 95° |
| 2026-05-07 23:00 | 25.30748 | 56.40078 | 21980 ft | 456 kts | 95° |
| 2026-05-07 23:00 | 25.30572 | 56.43587 | 22377 ft | 459 kts | 92° |
| 2026-05-07 23:00 | 25.30519 | 56.47125 | 22726 ft | 463 kts | 91° |
| 2026-05-07 23:01 | 25.30478 | 56.50699 | 23061 ft | 466 kts | 91° |
| 2026-05-07 23:01 | 25.30372 | 56.54291 | 23404 ft | 468 kts | 94° |
| 2026-05-07 23:01 | 25.30000 | 56.57872 | 23743 ft | 471 kts | 101° |
| 2026-05-07 23:01 | 25.29241 | 56.61401 | 24041 ft | 474 kts | 107° |
| 2026-05-07 23:02 | 25.28243 | 56.64883 | 24344 ft | 477 kts | 109° |
| 2026-05-07 23:02 | 25.27095 | 56.68329 | 24654 ft | 480 kts | 112° |
| 2026-05-07 23:02 | 25.25832 | 56.71750 | 24950 ft | 483 kts | 114° |
| 2026-05-07 23:02 | 25.24505 | 56.75169 | 25239 ft | 486 kts | 114° |
| 2026-05-07 23:03 | 25.23168 | 56.78609 | 25522 ft | 489 kts | 114° |
| 2026-05-07 23:03 | 25.21833 | 56.82069 | 25798 ft | 492 kts | 114° |
| 2026-05-07 23:03 | 25.20495 | 56.85555 | 26072 ft | 495 kts | 114° |
| 2026-05-07 23:03 | 25.19152 | 56.89061 | 26343 ft | 497 kts | 114° |
| 2026-05-07 23:04 | 25.17802 | 56.92591 | 26610 ft | 500 kts | 114° |
| 2026-05-07 23:04 | 25.16450 | 56.96136 | 26866 ft | 503 kts | 114° |
| 2026-05-07 23:04 | 25.15559 | 56.98502 | 27027 ft | 505 kts | 114° |
| 2026-05-07 23:04 | 25.13744 | 57.03306 | 27405 ft | 508 kts | 114° |
| 2026-05-07 23:05 | 25.12376 | 57.06910 | 27637 ft | 511 kts | 114° |
| 2026-05-07 23:05 | 25.11463 | 57.09310 | 27790 ft | 513 kts | 114° |
| 2026-05-07 23:05 | 25.10075 | 57.12943 | 28060 ft | 515 kts | 114° |
| 2026-05-07 23:05 | 25.08680 | 57.16588 | 28264 ft | 518 kts | 114° |
| 2026-05-07 23:06 | 25.07277 | 57.20255 | 28482 ft | 520 kts | 114° |
| 2026-05-07 23:06 | 25.05865 | 57.23938 | 28705 ft | 522 kts | 114° |
| 2026-05-07 23:06 | 25.04447 | 57.27636 | 28917 ft | 525 kts | 114° |
| 2026-05-07 23:06 | 25.03021 | 57.31350 | 29132 ft | 527 kts | 114° |
| 2026-05-07 23:07 | 25.01588 | 57.35079 | 29327 ft | 529 kts | 114° |
| 2026-05-07 23:07 | 25.00150 | 57.38820 | 29544 ft | 531 kts | 114° |
| 2026-05-07 23:07 | 24.98709 | 57.42562 | 29869 ft | 530 kts | 114° |
| 2026-05-07 23:07 | 24.97268 | 57.46303 | 30170 ft | 530 kts | 114° |
| 2026-05-07 23:08 | 24.95830 | 57.50036 | 30544 ft | 528 kts | 114° |
| 2026-05-07 23:08 | 24.94404 | 57.53773 | 30779 ft | 530 kts | 114° |
| 2026-05-07 23:08 | 24.92970 | 57.57501 | 31135 ft | 528 kts | 114° |
| 2026-05-07 23:08 | 24.91532 | 57.61214 | 31488 ft | 526 kts | 114° |
| 2026-05-07 23:09 | 24.90092 | 57.64925 | 31761 ft | 527 kts | 114° |
| 2026-05-07 23:09 | 24.88656 | 57.68624 | 32101 ft | 525 kts | 114° |
| 2026-05-07 23:09 | 24.87216 | 57.72327 | 32362 ft | 525 kts | 114° |
| 2026-05-07 23:09 | 24.85779 | 57.76022 | 32667 ft | 525 kts | 114° |
| 2026-05-07 23:10 | 24.84342 | 57.79716 | 32731 ft | 525 kts | 114° |
| 2026-05-07 23:10 | 24.81401 | 57.87070 | 32714 ft | 523 kts | 116° |
| 2026-05-07 23:11 | 24.78168 | 57.94295 | 32712 ft | 523 kts | 118° |
| 2026-05-07 23:11 | 24.74962 | 58.01463 | 32712 ft | 522 kts | 117° |
| 2026-05-07 23:12 | 24.71787 | 58.08652 | 32713 ft | 523 kts | 117° |
| 2026-05-07 23:12 | 24.68617 | 58.15846 | 32712 ft | 523 kts | 117° |
| 2026-05-07 23:13 | 24.65474 | 58.23052 | 32709 ft | 522 kts | 116° |
| 2026-05-07 23:13 | 24.62324 | 58.30234 | 32721 ft | 521 kts | 117° |
| 2026-05-07 23:14 | 24.59160 | 58.37407 | 32716 ft | 522 kts | 117° |
| 2026-05-07 23:14 | 24.55990 | 58.44586 | 32715 ft | 522 kts | 117° |
| 2026-05-07 23:15 | 24.52833 | 58.51767 | 32714 ft | 522 kts | 117° |
| 2026-05-07 23:15 | 24.49653 | 58.58931 | 32714 ft | 522 kts | 117° |
| 2026-05-07 23:16 | 24.46468 | 58.66089 | 32710 ft | 522 kts | 117° |
| 2026-05-07 23:16 | 24.43280 | 58.73246 | 32709 ft | 522 kts | 117° |
| 2026-05-07 23:17 | 24.40094 | 58.80412 | 32709 ft | 522 kts | 117° |
| 2026-05-07 23:17 | 24.36909 | 58.87568 | 32709 ft | 522 kts | 117° |
| 2026-05-07 23:18 | 24.33718 | 58.94726 | 32710 ft | 522 kts | 117° |
| 2026-05-07 23:18 | 24.30524 | 59.01881 | 32710 ft | 522 kts | 117° |
| 2026-05-07 23:19 | 24.27326 | 59.09036 | 32710 ft | 523 kts | 117° |
| 2026-05-07 23:19 | 24.24151 | 59.16198 | 32711 ft | 523 kts | 117° |
| 2026-05-07 23:20 | 24.20976 | 59.23360 | 32712 ft | 523 kts | 117° |
| 2026-05-07 23:20 | 24.17774 | 59.30507 | 32712 ft | 523 kts | 117° |
| 2026-05-07 23:21 | 24.14564 | 59.37642 | 32714 ft | 522 kts | 117° |
| 2026-05-07 23:21 | 24.11358 | 59.44763 | 32714 ft | 522 kts | 117° |
| 2026-05-07 23:22 | 24.08148 | 59.51891 | 32715 ft | 522 kts | 117° |
| 2026-05-07 23:22 | 24.04926 | 59.58999 | 32716 ft | 521 kts | 117° |
| 2026-05-07 23:23 | 24.01681 | 59.66144 | 32717 ft | 521 kts | 117° |
| 2026-05-07 23:23 | 23.98454 | 59.73240 | 32718 ft | 521 kts | 117° |
| 2026-05-07 23:24 | 23.95227 | 59.80324 | 32719 ft | 520 kts | 117° |
| 2026-05-07 23:24 | 23.92016 | 59.87411 | 32721 ft | 520 kts | 117° |
| 2026-05-07 23:25 | 23.88810 | 59.94503 | 32721 ft | 520 kts | 117° |
| 2026-05-07 23:25 | 23.85588 | 60.01585 | 32723 ft | 520 kts | 117° |
| 2026-05-07 23:26 | 23.82360 | 60.08660 | 32723 ft | 520 kts | 117° |
| 2026-05-07 23:26 | 23.79128 | 60.15730 | 32725 ft | 520 kts | 117° |
| 2026-05-07 23:27 | 23.74273 | 60.26331 | 32727 ft | 520 kts | 117° |
| 2026-05-07 23:27 | 23.71038 | 60.33385 | 32726 ft | 519 kts | 117° |
| 2026-05-07 23:28 | 23.67801 | 60.40426 | 32729 ft | 519 kts | 117° |
| 2026-05-07 23:28 | 23.64559 | 60.47469 | 32729 ft | 519 kts | 117° |
| 2026-05-07 23:29 | 23.61317 | 60.54504 | 32731 ft | 520 kts | 117° |
| 2026-05-07 23:29 | 23.58067 | 60.61544 | 32731 ft | 519 kts | 117° |
| 2026-05-07 23:30 | 23.54824 | 60.68561 | 32749 ft | 518 kts | 117° |
| 2026-05-07 23:30 | 23.51574 | 60.75580 | 32756 ft | 519 kts | 117° |
| 2026-05-07 23:31 | 23.48323 | 60.82593 | 32759 ft | 519 kts | 117° |
| 2026-05-07 23:31 | 23.45077 | 60.89611 | 32744 ft | 519 kts | 117° |
| 2026-05-07 23:32 | 23.41824 | 60.96627 | 32728 ft | 519 kts | 117° |
| 2026-05-07 23:32 | 23.38557 | 61.03629 | 32729 ft | 519 kts | 117° |
| 2026-05-07 23:33 | 23.35287 | 61.10625 | 32730 ft | 519 kts | 117° |
| 2026-05-07 23:33 | 23.32333 | 61.17781 | 32730 ft | 519 kts | 109° |
| 2026-05-07 23:34 | 23.30846 | 61.25518 | 32732 ft | 520 kts | 97° |
| 2026-05-07 23:34 | 23.30191 | 61.33350 | 32734 ft | 520 kts | 94° |
| 2026-05-07 23:35 | 23.29596 | 61.41194 | 32733 ft | 520 kts | 95° |
| 2026-05-07 23:35 | 23.28918 | 61.49031 | 32719 ft | 521 kts | 95° |
| 2026-05-07 23:36 | 23.28213 | 61.56876 | 32718 ft | 521 kts | 95° |
| 2026-05-07 23:36 | 23.27533 | 61.64721 | 32721 ft | 521 kts | 95° |
| 2026-05-07 23:37 | 23.26829 | 61.72572 | 32722 ft | 521 kts | 95° |
| 2026-05-07 23:37 | 23.26115 | 61.80411 | 32723 ft | 521 kts | 95° |
| 2026-05-07 23:38 | 23.25394 | 61.88252 | 32725 ft | 521 kts | 95° |
| 2026-05-07 23:38 | 23.24668 | 61.96088 | 32726 ft | 521 kts | 95° |
| 2026-05-07 23:39 | 23.23939 | 62.03927 | 32728 ft | 521 kts | 95° |
| 2026-05-07 23:39 | 23.23205 | 62.11763 | 32728 ft | 521 kts | 95° |
| 2026-05-07 23:40 | 23.22593 | 62.18269 | 32730 ft | 521 kts | 95° |
| 2026-05-07 23:40 | 23.21853 | 62.26101 | 32731 ft | 521 kts | 95° |
| 2026-05-07 23:41 | 23.21108 | 62.33936 | 32733 ft | 521 kts | 95° |
| 2026-05-07 23:41 | 23.20361 | 62.41756 | 32733 ft | 520 kts | 95° |
| 2026-05-07 23:42 | 23.19610 | 62.49571 | 32735 ft | 520 kts | 95° |
| 2026-05-07 23:42 | 23.18856 | 62.57386 | 32736 ft | 520 kts | 95° |
| 2026-05-07 23:43 | 23.18099 | 62.65197 | 32738 ft | 520 kts | 96° |
| 2026-05-07 23:43 | 23.17337 | 62.73013 | 32740 ft | 520 kts | 96° |
| 2026-05-07 23:44 | 23.16570 | 62.80821 | 32776 ft | 519 kts | 96° |
| 2026-05-07 23:44 | 23.15796 | 62.88662 | 32799 ft | 519 kts | 96° |
| 2026-05-07 23:45 | 23.15023 | 62.96463 | 32800 ft | 519 kts | 96° |
| 2026-05-07 23:45 | 23.14247 | 63.04260 | 32799 ft | 519 kts | 96° |
| 2026-05-07 23:46 | 23.13467 | 63.12053 | 32798 ft | 519 kts | 96° |
| 2026-05-07 23:46 | 23.12683 | 63.19845 | 32798 ft | 519 kts | 96° |
| 2026-05-07 23:47 | 23.11895 | 63.27639 | 32797 ft | 519 kts | 96° |
| 2026-05-07 23:47 | 23.11104 | 63.35429 | 32797 ft | 519 kts | 96° |
| 2026-05-07 23:48 | 23.10309 | 63.43221 | 32796 ft | 519 kts | 96° |
| 2026-05-07 23:48 | 23.09510 | 63.51011 | 32796 ft | 519 kts | 96° |
| 2026-05-07 23:49 | 23.08727 | 63.58801 | 32795 ft | 519 kts | 96° |
| 2026-05-07 23:49 | 23.07917 | 63.66590 | 32794 ft | 519 kts | 96° |
| 2026-05-07 23:50 | 23.07098 | 63.74378 | 32794 ft | 519 kts | 96° |
| 2026-05-07 23:50 | 23.06278 | 63.82161 | 32792 ft | 519 kts | 96° |
| 2026-05-07 23:51 | 23.05465 | 63.89949 | 32793 ft | 519 kts | 96° |
| 2026-05-07 23:51 | 23.04677 | 63.97739 | 32791 ft | 519 kts | 96° |
| 2026-05-07 23:52 | 23.03880 | 64.05523 | 32791 ft | 519 kts | 96° |
| 2026-05-07 23:52 | 23.03078 | 64.13319 | 32791 ft | 520 kts | 96° |
| 2026-05-07 23:53 | 23.02271 | 64.21119 | 32789 ft | 520 kts | 96° |
| 2026-05-07 23:53 | 23.01485 | 64.28917 | 32789 ft | 520 kts | 95° |
| 2026-05-07 23:54 | 23.00694 | 64.36708 | 32788 ft | 520 kts | 96° |
| 2026-05-07 23:54 | 22.99886 | 64.44499 | 32788 ft | 519 kts | 96° |
| 2026-05-07 23:55 | 22.99089 | 64.52282 | 32787 ft | 518 kts | 96° |
| 2026-05-07 23:55 | 22.98279 | 64.60055 | 32787 ft | 519 kts | 96° |
| 2026-05-07 23:56 | 22.97452 | 64.67831 | 32786 ft | 519 kts | 96° |
| 2026-05-07 23:56 | 22.96622 | 64.75601 | 32786 ft | 519 kts | 96° |
| 2026-05-07 23:57 | 22.95826 | 64.83385 | 32784 ft | 519 kts | 94° |
| 2026-05-07 23:57 | 22.95618 | 64.91213 | 32785 ft | 519 kts | 89° |
| 2026-05-07 23:58 | 22.95773 | 64.99038 | 32784 ft | 519 kts | 88° |
| 2026-05-07 23:58 | 22.95885 | 65.06860 | 32784 ft | 518 kts | 88° |
| 2026-05-07 23:59 | 22.95934 | 65.14681 | 32783 ft | 518 kts | 89° |
| 2026-05-07 23:59 | 22.95973 | 65.22502 | 32788 ft | 518 kts | 88° |
| 2026-05-08 00:00 | 22.96030 | 65.30324 | 32782 ft | 518 kts | 89° |
| 2026-05-08 00:00 | 22.96066 | 65.38142 | 32782 ft | 518 kts | 89° |
| 2026-05-08 00:01 | 22.96092 | 65.45968 | 32781 ft | 519 kts | 89° |
| 2026-05-08 00:01 | 22.96113 | 65.53848 | 32778 ft | 519 kts | 89° |
| 2026-05-08 00:02 | 22.96129 | 65.61634 | 32781 ft | 519 kts | 89° |
| 2026-05-08 00:02 | 22.96141 | 65.69519 | 32780 ft | 519 kts | 89° |
| 2026-05-08 00:03 | 22.96148 | 65.77349 | 32781 ft | 519 kts | 89° |
| 2026-05-08 00:03 | 22.96153 | 65.85184 | 32779 ft | 519 kts | 89° |
| 2026-05-08 00:04 | 22.96155 | 65.93013 | 32784 ft | 519 kts | 89° |
| 2026-05-08 00:04 | 22.96150 | 66.00844 | 32780 ft | 519 kts | 89° |
| 2026-05-08 00:05 | 22.96146 | 66.08681 | 32783 ft | 519 kts | 89° |
| 2026-05-08 00:05 | 22.96133 | 66.16521 | 32780 ft | 520 kts | 89° |
| 2026-05-08 00:06 | 22.96116 | 66.24374 | 32778 ft | 521 kts | 89° |
| 2026-05-08 00:06 | 22.96097 | 66.32234 | 32779 ft | 521 kts | 89° |
| 2026-05-08 00:07 | 22.96074 | 66.40082 | 32779 ft | 520 kts | 89° |
| 2026-05-08 00:07 | 22.96048 | 66.47934 | 32778 ft | 520 kts | 89° |
| 2026-05-08 00:08 | 22.96017 | 66.55789 | 32779 ft | 520 kts | 89° |
| 2026-05-08 00:08 | 22.95992 | 66.63639 | 32779 ft | 520 kts | 89° |
| 2026-05-08 00:09 | 22.95965 | 66.71493 | 32779 ft | 521 kts | 89° |
| 2026-05-08 00:09 | 22.95916 | 66.79353 | 32779 ft | 521 kts | 89° |
| 2026-05-08 00:10 | 22.95862 | 66.87216 | 32779 ft | 521 kts | 89° |
| 2026-05-08 00:10 | 22.95809 | 66.95077 | 32780 ft | 521 kts | 89° |
| 2026-05-08 00:11 | 22.95800 | 67.02940 | 32780 ft | 521 kts | 88° |
| 2026-05-08 00:11 | 22.95821 | 67.10799 | 32782 ft | 521 kts | 88° |
| 2026-05-08 00:12 | 22.95828 | 67.18670 | 32780 ft | 522 kts | 88° |
| 2026-05-08 00:12 | 22.95829 | 67.26596 | 32782 ft | 522 kts | 88° |
| 2026-05-08 00:13 | 22.95829 | 67.34471 | 32782 ft | 522 kts | 88° |
| 2026-05-08 00:13 | 22.95856 | 67.42340 | 32782 ft | 522 kts | 88° |
| 2026-05-08 00:14 | 22.95860 | 67.50211 | 32784 ft | 522 kts | 88° |
| 2026-05-08 00:14 | 22.95874 | 67.58087 | 32783 ft | 522 kts | 88° |
| 2026-05-08 00:15 | 22.95863 | 67.65961 | 32785 ft | 522 kts | 89° |
| 2026-05-08 00:15 | 22.95841 | 67.73845 | 32781 ft | 523 kts | 88° |
| 2026-05-08 00:16 | 22.95821 | 67.80397 | 32786 ft | 523 kts | 89° |
| 2026-05-08 00:16 | 22.95798 | 67.88286 | 32788 ft | 522 kts | 88° |
| 2026-05-08 00:17 | 22.95805 | 67.96161 | 32787 ft | 522 kts | 88° |
| 2026-05-08 00:17 | 22.95811 | 68.04095 | 32788 ft | 523 kts | 88° |
| 2026-05-08 00:18 | 22.95838 | 68.11990 | 32788 ft | 524 kts | 88° |
| 2026-05-08 00:18 | 22.95831 | 68.19901 | 32789 ft | 524 kts | 88° |
| 2026-05-08 00:19 | 22.95818 | 68.27804 | 32790 ft | 524 kts | 88° |
| 2026-05-08 00:19 | 22.95804 | 68.35705 | 32789 ft | 524 kts | 88° |
| 2026-05-08 00:20 | 22.95625 | 68.43619 | 32791 ft | 525 kts | 91° |
| 2026-05-08 00:20 | 22.95087 | 68.51516 | 32790 ft | 525 kts | 93° |
| 2026-05-08 00:21 | 22.94551 | 68.59426 | 32791 ft | 525 kts | 92° |
| 2026-05-08 00:21 | 22.94062 | 68.67332 | 32791 ft | 525 kts | 92° |
| 2026-05-08 00:22 | 22.93581 | 68.75243 | 32791 ft | 526 kts | 92° |
| 2026-05-08 00:22 | 22.93134 | 68.83162 | 32792 ft | 526 kts | 92° |
| 2026-05-08 00:23 | 22.92668 | 68.91083 | 32791 ft | 526 kts | 92° |
| 2026-05-08 00:23 | 22.92190 | 68.98999 | 32791 ft | 526 kts | 92° |
| 2026-05-08 00:24 | 22.91707 | 69.06918 | 32791 ft | 526 kts | 92° |
| 2026-05-08 00:24 | 22.91218 | 69.14863 | 32791 ft | 527 kts | 92° |
| 2026-05-08 00:25 | 22.90727 | 69.22792 | 32790 ft | 527 kts | 92° |
| 2026-05-08 00:25 | 22.90231 | 69.30720 | 32790 ft | 527 kts | 92° |
| 2026-05-08 00:26 | 22.89742 | 69.38655 | 32790 ft | 528 kts | 92° |
| 2026-05-08 00:26 | 22.89244 | 69.46594 | 32790 ft | 528 kts | 92° |
| 2026-05-08 00:27 | 22.88726 | 69.54538 | 32789 ft | 528 kts | 92° |
| 2026-05-08 00:27 | 22.88206 | 69.62477 | 32789 ft | 528 kts | 92° |
| 2026-05-08 00:28 | 22.87685 | 69.70432 | 32789 ft | 529 kts | 92° |
| 2026-05-08 00:28 | 22.87214 | 69.78382 | 32787 ft | 529 kts | 91° |
| 2026-05-08 00:29 | 22.86748 | 69.86335 | 32788 ft | 528 kts | 91° |
| 2026-05-08 00:29 | 22.86273 | 69.94284 | 32788 ft | 528 kts | 91° |
| 2026-05-08 00:30 | 22.85794 | 70.02233 | 32787 ft | 528 kts | 91° |
| 2026-05-08 00:30 | 22.85321 | 70.10193 | 32788 ft | 530 kts | 91° |
| 2026-05-08 00:31 | 22.84863 | 70.18167 | 32787 ft | 530 kts | 91° |
| 2026-05-08 00:31 | 22.84384 | 70.26138 | 32787 ft | 530 kts | 91° |
| 2026-05-08 00:32 | 22.83897 | 70.34110 | 32791 ft | 530 kts | 91° |
| 2026-05-08 00:32 | 22.83406 | 70.42076 | 32790 ft | 530 kts | 91° |
| 2026-05-08 00:33 | 22.82916 | 70.50048 | 32791 ft | 530 kts | 91° |
| 2026-05-08 00:33 | 22.82431 | 70.58019 | 32789 ft | 530 kts | 91° |
| 2026-05-08 00:34 | 22.81920 | 70.65999 | 32790 ft | 531 kts | 91° |
| 2026-05-08 00:34 | 22.81403 | 70.73980 | 32789 ft | 531 kts | 92° |
| 2026-05-08 00:35 | 22.81006 | 70.81962 | 32787 ft | 530 kts | 86° |
| 2026-05-08 00:35 | 22.81611 | 70.89933 | 32788 ft | 532 kts | 79° |
| 2026-05-08 00:36 | 22.82804 | 70.97848 | 32786 ft | 531 kts | 76° |
| 2026-05-08 00:36 | 22.84101 | 71.05717 | 32785 ft | 530 kts | 77° |
| 2026-05-08 00:37 | 22.85307 | 71.13596 | 32784 ft | 530 kts | 77° |
| 2026-05-08 00:38 | 22.87088 | 71.25430 | 32781 ft | 530 kts | 77° |
| 2026-05-08 00:38 | 22.88276 | 71.33323 | 32781 ft | 530 kts | 77° |
| 2026-05-08 00:39 | 22.89447 | 71.41221 | 32779 ft | 530 kts | 78° |
| 2026-05-08 00:39 | 22.90611 | 71.49123 | 32778 ft | 531 kts | 77° |
| 2026-05-08 00:40 | 22.91782 | 71.57106 | 33089 ft | 533 kts | 78° |
| 2026-05-08 00:40 | 22.92361 | 71.61066 | 33458 ft | 530 kts | 78° |
| 2026-05-08 00:40 | 22.92936 | 71.65003 | 33795 ft | 529 kts | 78° |
| 2026-05-08 00:40 | 22.93510 | 71.68940 | 34050 ft | 529 kts | 78° |
| 2026-05-08 00:41 | 22.94082 | 71.72878 | 34326 ft | 528 kts | 78° |
| 2026-05-08 00:41 | 22.94646 | 71.76761 | 34605 ft | 527 kts | 78° |
| 2026-05-08 00:41 | 22.95225 | 71.80744 | 34772 ft | 528 kts | 78° |
| 2026-05-08 00:42 | 22.96362 | 71.88615 | 34765 ft | 528 kts | 78° |
| 2026-05-08 00:42 | 22.97494 | 71.96479 | 34763 ft | 528 kts | 78° |
| 2026-05-08 00:43 | 22.98624 | 72.04349 | 34763 ft | 528 kts | 78° |
| 2026-05-08 00:43 | 22.99749 | 72.12220 | 34761 ft | 528 kts | 78° |
| 2026-05-08 00:44 | 23.00876 | 72.20109 | 34764 ft | 529 kts | 78° |
| 2026-05-08 00:44 | 23.01977 | 72.27882 | 34760 ft | 529 kts | 78° |
| 2026-05-08 00:45 | 23.03115 | 72.35778 | 34759 ft | 529 kts | 78° |
| 2026-05-08 00:45 | 23.04223 | 72.43678 | 34758 ft | 529 kts | 78° |
| 2026-05-08 00:46 | 23.05324 | 72.51576 | 34758 ft | 529 kts | 78° |
| 2026-05-08 00:46 | 23.06425 | 72.59483 | 34757 ft | 530 kts | 78° |
| 2026-05-08 00:47 | 23.07350 | 72.67428 | 34758 ft | 531 kts | 82° |
| 2026-05-08 00:47 | 23.07754 | 72.75450 | 34758 ft | 532 kts | 85° |
| 2026-05-08 00:48 | 23.08078 | 72.83475 | 34758 ft | 532 kts | 84° |
| 2026-05-08 00:48 | 23.08479 | 72.91509 | 34760 ft | 533 kts | 84° |
| 2026-05-08 00:49 | 23.08900 | 72.99540 | 34760 ft | 533 kts | 84° |
| 2026-05-08 00:49 | 23.09357 | 73.07573 | 34761 ft | 533 kts | 84° |
| 2026-05-08 00:50 | 23.09802 | 73.15618 | 34763 ft | 534 kts | 84° |
| 2026-05-08 00:50 | 23.10234 | 73.23670 | 34765 ft | 534 kts | 84° |
| 2026-05-08 00:51 | 23.10659 | 73.31717 | 34779 ft | 534 kts | 84° |
| 2026-05-08 00:51 | 23.11079 | 73.39771 | 34784 ft | 534 kts | 84° |
| 2026-05-08 00:52 | 23.11496 | 73.47828 | 34791 ft | 535 kts | 84° |
| 2026-05-08 00:52 | 23.11909 | 73.55891 | 34794 ft | 535 kts | 84° |
| 2026-05-08 00:53 | 23.12254 | 73.62650 | 34802 ft | 535 kts | 84° |
| 2026-05-08 00:53 | 23.12657 | 73.70714 | 34801 ft | 535 kts | 84° |
| 2026-05-08 00:54 | 23.13059 | 73.78787 | 34805 ft | 535 kts | 84° |
| 2026-05-08 00:54 | 23.13456 | 73.86865 | 34809 ft | 536 kts | 84° |
| 2026-05-08 00:55 | 23.13850 | 73.94949 | 34818 ft | 536 kts | 84° |
| 2026-05-08 00:55 | 23.14255 | 74.03025 | 34824 ft | 536 kts | 84° |
| 2026-05-08 00:56 | 23.14645 | 74.11124 | 34830 ft | 537 kts | 84° |
| 2026-05-08 00:56 | 23.15020 | 74.19236 | 34836 ft | 538 kts | 84° |
| 2026-05-08 00:57 | 23.15391 | 74.27347 | 34840 ft | 538 kts | 84° |
| 2026-05-08 00:57 | 23.15760 | 74.35463 | 34846 ft | 538 kts | 84° |
| 2026-05-08 00:58 | 23.15948 | 74.43591 | 34853 ft | 538 kts | 86° |
| 2026-05-08 00:58 | 23.16069 | 74.51723 | 34858 ft | 538 kts | 86° |
| 2026-05-08 00:59 | 23.16210 | 74.59858 | 34865 ft | 539 kts | 86° |
| 2026-05-08 00:59 | 23.16355 | 74.67998 | 34870 ft | 539 kts | 86° |
| 2026-05-08 01:00 | 23.16522 | 74.76138 | 34876 ft | 539 kts | 86° |
| 2026-05-08 01:00 | 23.16691 | 74.84276 | 34883 ft | 539 kts | 86° |
| 2026-05-08 01:01 | 23.16844 | 74.92423 | 34888 ft | 539 kts | 86° |
| 2026-05-08 01:01 | 23.16990 | 75.00573 | 34895 ft | 540 kts | 86° |
| 2026-05-08 01:02 | 23.17128 | 75.08735 | 34900 ft | 540 kts | 86° |
| 2026-05-08 01:02 | 23.17263 | 75.16902 | 34904 ft | 540 kts | 86° |
| 2026-05-08 01:03 | 23.17394 | 75.25063 | 34908 ft | 540 kts | 86° |
| 2026-05-08 01:03 | 23.17521 | 75.33234 | 34913 ft | 541 kts | 86° |
| 2026-05-08 01:04 | 23.17644 | 75.41412 | 34916 ft | 541 kts | 86° |
| 2026-05-08 01:04 | 23.17763 | 75.49598 | 34918 ft | 541 kts | 86° |
| 2026-05-08 01:05 | 23.17878 | 75.57818 | 34921 ft | 542 kts | 86° |
| 2026-05-08 01:05 | 23.17992 | 75.66023 | 34924 ft | 542 kts | 86° |
| 2026-05-08 01:06 | 23.18115 | 75.74218 | 34926 ft | 542 kts | 86° |
| 2026-05-08 01:06 | 23.18210 | 75.82412 | 34929 ft | 542 kts | 86° |
| 2026-05-08 01:07 | 23.18299 | 75.90614 | 34930 ft | 543 kts | 86° |
| 2026-05-08 01:07 | 23.18389 | 75.98823 | 34929 ft | 543 kts | 86° |
| 2026-05-08 01:08 | 23.18761 | 76.07020 | 34929 ft | 543 kts | 82° |
| 2026-05-08 01:08 | 23.19497 | 76.15194 | 34927 ft | 544 kts | 81° |
| 2026-05-08 01:09 | 23.20183 | 76.23389 | 34923 ft | 544 kts | 82° |
| 2026-05-08 01:09 | 23.20812 | 76.31577 | 34924 ft | 544 kts | 82° |
| 2026-05-08 01:10 | 23.21437 | 76.39777 | 34921 ft | 544 kts | 82° |
| 2026-05-08 01:10 | 23.22079 | 76.47964 | 34919 ft | 544 kts | 82° |
| 2026-05-08 01:11 | 23.22700 | 76.56166 | 34917 ft | 544 kts | 82° |
| 2026-05-08 01:11 | 23.23311 | 76.64362 | 34914 ft | 544 kts | 82° |
| 2026-05-08 01:12 | 23.23920 | 76.72562 | 34913 ft | 544 kts | 82° |
| 2026-05-08 01:12 | 23.24520 | 76.80766 | 34911 ft | 544 kts | 82° |
| 2026-05-08 01:13 | 23.25117 | 76.88968 | 34909 ft | 544 kts | 82° |
| 2026-05-08 01:13 | 23.25709 | 76.97155 | 34908 ft | 545 kts | 83° |
| 2026-05-08 01:14 | 23.26319 | 77.05374 | 34906 ft | 546 kts | 83° |
| 2026-05-08 01:14 | 23.26902 | 77.13604 | 34905 ft | 546 kts | 83° |
| 2026-05-08 01:15 | 23.27476 | 77.21835 | 34905 ft | 546 kts | 83° |
| 2026-05-08 01:15 | 23.28048 | 77.30069 | 34906 ft | 546 kts | 83° |
| 2026-05-08 01:16 | 23.28338 | 77.38334 | 34905 ft | 548 kts | 88° |
| 2026-05-08 01:16 | 23.27961 | 77.46616 | 34906 ft | 549 kts | 92° |
| 2026-05-08 01:17 | 23.27469 | 77.54905 | 34910 ft | 550 kts | 91° |
| 2026-05-08 01:17 | 23.27076 | 77.63217 | 34905 ft | 550 kts | 90° |
| 2026-05-08 01:18 | 23.26708 | 77.71585 | 34904 ft | 550 kts | 90° |
| 2026-05-08 01:18 | 23.26381 | 77.79898 | 34905 ft | 551 kts | 90° |
| 2026-05-08 01:19 | 23.26033 | 77.88216 | 34905 ft | 551 kts | 90° |
| 2026-05-08 01:19 | 23.25673 | 77.96532 | 34904 ft | 551 kts | 90° |
| 2026-05-08 01:20 | 23.25307 | 78.04850 | 34903 ft | 551 kts | 90° |
| 2026-05-08 01:20 | 23.24937 | 78.13177 | 34899 ft | 551 kts | 90° |
| 2026-05-08 01:21 | 23.24562 | 78.21504 | 34901 ft | 552 kts | 91° |
| 2026-05-08 01:21 | 23.24181 | 78.29837 | 34901 ft | 552 kts | 91° |
| 2026-05-08 01:22 | 23.23797 | 78.38164 | 34900 ft | 551 kts | 91° |
| 2026-05-08 01:22 | 23.23430 | 78.46478 | 34898 ft | 551 kts | 91° |
| 2026-05-08 01:23 | 23.23032 | 78.54800 | 34897 ft | 551 kts | 91° |
| 2026-05-08 01:23 | 23.22627 | 78.63116 | 34895 ft | 551 kts | 91° |
| 2026-05-08 01:24 | 23.22221 | 78.71426 | 34893 ft | 551 kts | 91° |
| 2026-05-08 01:24 | 23.21909 | 78.79746 | 34891 ft | 550 kts | 89° |
| 2026-05-08 01:25 | 23.21845 | 78.88062 | 34889 ft | 550 kts | 89° |
| 2026-05-08 01:25 | 23.21738 | 78.96373 | 34887 ft | 550 kts | 89° |
| 2026-05-08 01:26 | 23.21602 | 79.04683 | 34886 ft | 550 kts | 89° |
| 2026-05-08 01:26 | 23.21464 | 79.13000 | 34887 ft | 550 kts | 89° |
| 2026-05-08 01:27 | 23.21347 | 79.21318 | 34884 ft | 550 kts | 90° |
| 2026-05-08 01:27 | 23.21226 | 79.29629 | 34883 ft | 550 kts | 90° |
| 2026-05-08 01:28 | 23.21071 | 79.37936 | 34882 ft | 550 kts | 90° |
| 2026-05-08 01:28 | 23.20934 | 79.44899 | 34880 ft | 550 kts | 90° |
| 2026-05-08 01:29 | 23.20770 | 79.53209 | 34879 ft | 550 kts | 90° |
| 2026-05-08 01:29 | 23.20560 | 79.61519 | 34878 ft | 550 kts | 91° |
| 2026-05-08 01:30 | 23.20165 | 79.69842 | 34877 ft | 550 kts | 92° |
| 2026-05-08 01:30 | 23.19826 | 79.78154 | 34876 ft | 551 kts | 91° |
| 2026-05-08 01:31 | 23.19469 | 79.86468 | 34876 ft | 551 kts | 92° |
| 2026-05-08 01:31 | 23.19102 | 79.94780 | 34876 ft | 551 kts | 92° |
| 2026-05-08 01:32 | 23.18734 | 80.03090 | 34875 ft | 551 kts | 92° |
| 2026-05-08 01:32 | 23.18337 | 80.11406 | 34876 ft | 551 kts | 92° |
| 2026-05-08 01:33 | 23.17898 | 80.19724 | 34877 ft | 551 kts | 93° |
| 2026-05-08 01:33 | 23.17459 | 80.28043 | 34877 ft | 551 kts | 93° |
| 2026-05-08 01:34 | 23.17018 | 80.36360 | 34878 ft | 551 kts | 93° |
| 2026-05-08 01:34 | 23.16597 | 80.44681 | 34878 ft | 551 kts | 92° |
| 2026-05-08 01:35 | 23.16180 | 80.52995 | 34879 ft | 551 kts | 93° |
| 2026-05-08 01:35 | 23.15726 | 80.61309 | 34880 ft | 551 kts | 93° |
| 2026-05-08 01:36 | 23.15268 | 80.69627 | 34879 ft | 551 kts | 93° |
| 2026-05-08 01:36 | 23.14808 | 80.77943 | 34883 ft | 552 kts | 93° |
| 2026-05-08 01:37 | 23.14349 | 80.86267 | 34884 ft | 552 kts | 93° |
| 2026-05-08 01:37 | 23.13882 | 80.94600 | 34884 ft | 553 kts | 94° |
| 2026-05-08 01:38 | 23.13409 | 81.02932 | 34885 ft | 552 kts | 94° |
| 2026-05-08 01:38 | 23.12932 | 81.11262 | 34887 ft | 552 kts | 94° |
| 2026-05-08 01:39 | 23.12480 | 81.19586 | 34887 ft | 552 kts | 93° |
| 2026-05-08 01:39 | 23.12019 | 81.27920 | 34888 ft | 552 kts | 94° |
| 2026-05-08 01:40 | 23.11542 | 81.36252 | 34889 ft | 553 kts | 94° |
| 2026-05-08 01:40 | 23.11058 | 81.44597 | 34889 ft | 554 kts | 94° |
| 2026-05-08 01:41 | 23.10569 | 81.52940 | 34890 ft | 553 kts | 94° |
| 2026-05-08 01:41 | 23.10076 | 81.61284 | 34891 ft | 553 kts | 94° |
| 2026-05-08 01:42 | 23.09578 | 81.69622 | 34891 ft | 553 kts | 94° |
| 2026-05-08 01:42 | 23.09076 | 81.77961 | 34888 ft | 553 kts | 94° |
| 2026-05-08 01:43 | 23.08587 | 81.86305 | 34887 ft | 553 kts | 94° |
| 2026-05-08 01:43 | 23.08078 | 81.94640 | 34888 ft | 553 kts | 94° |
| 2026-05-08 01:44 | 23.07554 | 82.02979 | 34888 ft | 554 kts | 94° |
| 2026-05-08 01:44 | 23.07026 | 82.11331 | 34889 ft | 555 kts | 95° |
| 2026-05-08 01:45 | 23.06515 | 82.19691 | 34889 ft | 555 kts | 94° |
| 2026-05-08 01:45 | 23.06162 | 82.28108 | 34889 ft | 554 kts | 93° |
| 2026-05-08 01:46 | 23.05811 | 82.36407 | 34890 ft | 554 kts | 93° |
| 2026-05-08 01:46 | 23.05431 | 82.44816 | 34889 ft | 554 kts | 94° |
| 2026-05-08 01:47 | 23.05047 | 82.53175 | 34889 ft | 554 kts | 94° |
| 2026-05-08 01:47 | 23.04693 | 82.61539 | 34890 ft | 555 kts | 93° |
| 2026-05-08 01:48 | 23.04132 | 82.74094 | 34890 ft | 555 kts | 94° |
| 2026-05-08 01:48 | 23.03744 | 82.82466 | 34889 ft | 555 kts | 94° |
| 2026-05-08 01:49 | 23.03354 | 82.90826 | 34922 ft | 554 kts | 94° |
| 2026-05-08 01:49 | 23.02953 | 82.99186 | 34945 ft | 555 kts | 94° |
| 2026-05-08 01:50 | 23.02550 | 83.07552 | 34948 ft | 555 kts | 94° |
| 2026-05-08 01:50 | 23.02142 | 83.15917 | 34950 ft | 555 kts | 94° |
| 2026-05-08 01:51 | 23.01731 | 83.24274 | 34954 ft | 554 kts | 94° |
| 2026-05-08 01:51 | 23.01315 | 83.32632 | 34958 ft | 554 kts | 94° |
| 2026-05-08 01:52 | 23.00895 | 83.40985 | 34961 ft | 554 kts | 94° |
| 2026-05-08 01:52 | 23.00471 | 83.49343 | 34965 ft | 555 kts | 94° |
| 2026-05-08 01:53 | 23.00042 | 83.57706 | 34970 ft | 555 kts | 94° |
| 2026-05-08 01:53 | 22.99609 | 83.66075 | 34975 ft | 555 kts | 95° |
| 2026-05-08 01:54 | 22.99169 | 83.74446 | 34978 ft | 555 kts | 95° |
| 2026-05-08 01:54 | 22.98744 | 83.82810 | 34982 ft | 555 kts | 95° |
| 2026-05-08 01:55 | 22.98299 | 83.91167 | 34988 ft | 555 kts | 95° |
| 2026-05-08 01:55 | 22.97839 | 83.99524 | 34993 ft | 555 kts | 95° |
| 2026-05-08 01:56 | 22.97377 | 84.07877 | 34997 ft | 555 kts | 95° |
| 2026-05-08 01:56 | 22.96899 | 84.16229 | 35002 ft | 554 kts | 96° |
| 2026-05-08 01:57 | 22.96283 | 84.24552 | 35012 ft | 553 kts | 97° |
| 2026-05-08 01:57 | 22.95657 | 84.32873 | 35012 ft | 553 kts | 97° |
| 2026-05-08 01:58 | 22.95041 | 84.41194 | 35017 ft | 553 kts | 96° |
| 2026-05-08 01:58 | 22.94425 | 84.49512 | 35021 ft | 553 kts | 97° |
| 2026-05-08 01:59 | 22.93837 | 84.57830 | 35025 ft | 553 kts | 96° |
| 2026-05-08 01:59 | 22.93232 | 84.66154 | 35029 ft | 554 kts | 97° |
| 2026-05-08 02:00 | 22.92612 | 84.74474 | 35033 ft | 553 kts | 97° |
| 2026-05-08 02:00 | 22.92001 | 84.82797 | 35035 ft | 553 kts | 97° |
| 2026-05-08 02:01 | 22.91378 | 84.91112 | 35039 ft | 553 kts | 97° |
| 2026-05-08 02:01 | 22.90733 | 84.99472 | 35036 ft | 553 kts | 97° |
| 2026-05-08 02:02 | 22.90090 | 85.07776 | 35037 ft | 552 kts | 97° |
| 2026-05-08 02:02 | 22.89447 | 85.16070 | 35039 ft | 552 kts | 97° |
| 2026-05-08 02:03 | 22.88910 | 85.22962 | 35042 ft | 552 kts | 97° |
| 2026-05-08 02:03 | 22.88253 | 85.31258 | 35041 ft | 552 kts | 97° |
| 2026-05-08 02:04 | 22.87593 | 85.39550 | 35041 ft | 552 kts | 97° |
| 2026-05-08 02:04 | 22.86929 | 85.47832 | 35040 ft | 551 kts | 98° |
| 2026-05-08 02:05 | 22.86285 | 85.56116 | 35038 ft | 551 kts | 97° |
| 2026-05-08 02:05 | 22.85638 | 85.64390 | 35029 ft | 551 kts | 98° |
| 2026-05-08 02:06 | 22.84974 | 85.72668 | 35026 ft | 551 kts | 98° |
| 2026-05-08 02:06 | 22.84305 | 85.80943 | 35018 ft | 551 kts | 98° |
| 2026-05-08 02:07 | 22.83650 | 85.89213 | 35017 ft | 551 kts | 98° |
| 2026-05-08 02:07 | 22.82968 | 85.97481 | 35012 ft | 550 kts | 98° |
| 2026-05-08 02:08 | 22.82277 | 86.05743 | 35006 ft | 550 kts | 98° |
| 2026-05-08 02:08 | 22.81581 | 86.14038 | 35001 ft | 549 kts | 98° |
| 2026-05-08 02:09 | 22.80942 | 86.22291 | 34995 ft | 550 kts | 97° |
| 2026-05-08 02:09 | 22.80537 | 86.30566 | 34990 ft | 550 kts | 96° |
| 2026-05-08 02:10 | 22.80117 | 86.38858 | 34983 ft | 551 kts | 96° |
| 2026-05-08 02:10 | 22.79666 | 86.47151 | 34978 ft | 551 kts | 96° |
| 2026-05-08 02:11 | 22.79204 | 86.55436 | 34974 ft | 551 kts | 96° |
| 2026-05-08 02:11 | 22.78775 | 86.63723 | 34967 ft | 551 kts | 96° |
| 2026-05-08 02:12 | 22.78323 | 86.72006 | 34963 ft | 551 kts | 97° |
| 2026-05-08 02:12 | 22.77859 | 86.80292 | 34960 ft | 551 kts | 97° |
| 2026-05-08 02:13 | 22.77388 | 86.88583 | 34956 ft | 551 kts | 97° |
| 2026-05-08 02:13 | 22.76913 | 86.96872 | 34953 ft | 551 kts | 97° |
| 2026-05-08 02:14 | 22.76433 | 87.05155 | 34952 ft | 551 kts | 97° |
| 2026-05-08 02:14 | 22.75949 | 87.13442 | 34949 ft | 551 kts | 97° |
| 2026-05-08 02:15 | 22.75461 | 87.21720 | 34948 ft | 551 kts | 97° |
| 2026-05-08 02:15 | 22.74964 | 87.30066 | 34937 ft | 551 kts | 97° |
| 2026-05-08 02:16 | 22.74467 | 87.38353 | 34935 ft | 551 kts | 97° |
| 2026-05-08 02:16 | 22.73966 | 87.46626 | 34934 ft | 551 kts | 97° |
| 2026-05-08 02:17 | 22.73462 | 87.54901 | 34935 ft | 551 kts | 97° |
| 2026-05-08 02:17 | 22.72952 | 87.63178 | 34935 ft | 550 kts | 97° |
| 2026-05-08 02:18 | 22.72439 | 87.71442 | 34935 ft | 550 kts | 98° |
| 2026-05-08 02:18 | 22.71923 | 87.79707 | 34936 ft | 549 kts | 97° |
| 2026-05-08 02:19 | 22.71401 | 87.87958 | 34936 ft | 549 kts | 98° |
| 2026-05-08 02:19 | 22.70876 | 87.96211 | 34935 ft | 549 kts | 98° |
| 2026-05-08 02:20 | 22.70347 | 88.04463 | 34933 ft | 549 kts | 98° |
| 2026-05-08 02:20 | 22.69827 | 88.12712 | 34934 ft | 549 kts | 98° |
| 2026-05-08 02:21 | 22.69296 | 88.20953 | 34935 ft | 549 kts | 98° |
| 2026-05-08 02:21 | 22.68747 | 88.29193 | 34935 ft | 549 kts | 98° |
| 2026-05-08 02:22 | 22.68194 | 88.37433 | 34935 ft | 549 kts | 98° |
| 2026-05-08 02:22 | 22.67608 | 88.45669 | 34935 ft | 548 kts | 100° |
| 2026-05-08 02:23 | 22.66389 | 88.53788 | 34935 ft | 546 kts | 106° |
| 2026-05-08 02:23 | 22.64865 | 88.61849 | 34935 ft | 546 kts | 105° |
| 2026-05-08 02:24 | 22.63505 | 88.69924 | 34935 ft | 545 kts | 105° |
| 2026-05-08 02:24 | 22.62140 | 88.77990 | 34936 ft | 545 kts | 105° |
| 2026-05-08 02:25 | 22.60768 | 88.86060 | 34936 ft | 545 kts | 105° |
| 2026-05-08 02:25 | 22.59396 | 88.94128 | 34936 ft | 545 kts | 104° |
| 2026-05-08 02:26 | 22.58325 | 89.02267 | 34936 ft | 547 kts | 101° |
| 2026-05-08 02:26 | 22.57521 | 89.10455 | 34937 ft | 547 kts | 100° |
| 2026-05-08 02:27 | 22.56660 | 89.18639 | 34939 ft | 548 kts | 101° |
| 2026-05-08 02:27 | 22.55753 | 89.26820 | 34938 ft | 547 kts | 101° |
| 2026-05-08 02:28 | 22.54853 | 89.34983 | 34939 ft | 547 kts | 101° |
| 2026-05-08 02:28 | 22.53961 | 89.43153 | 34940 ft | 546 kts | 101° |
| 2026-05-08 02:29 | 22.53051 | 89.51304 | 34940 ft | 546 kts | 101° |
| 2026-05-08 02:29 | 22.52134 | 89.59457 | 34945 ft | 546 kts | 101° |
| 2026-05-08 02:30 | 22.51209 | 89.67600 | 34942 ft | 545 kts | 101° |
| 2026-05-08 02:30 | 22.50276 | 89.75790 | 34943 ft | 545 kts | 101° |
| 2026-05-08 02:31 | 22.49345 | 89.83923 | 34944 ft | 545 kts | 101° |
| 2026-05-08 02:31 | 22.48410 | 89.92049 | 34944 ft | 544 kts | 101° |
| 2026-05-08 02:32 | 22.47473 | 90.00167 | 34945 ft | 544 kts | 101° |
| 2026-05-08 02:32 | 22.46530 | 90.08289 | 34945 ft | 544 kts | 101° |
| 2026-05-08 02:33 | 22.45585 | 90.16395 | 34944 ft | 544 kts | 101° |
| 2026-05-08 02:33 | 22.44636 | 90.24500 | 34945 ft | 544 kts | 101° |
| 2026-05-08 02:34 | 22.43682 | 90.32611 | 34945 ft | 544 kts | 101° |
| 2026-05-08 02:34 | 22.42723 | 90.40730 | 34944 ft | 545 kts | 101° |
| 2026-05-08 02:35 | 22.41761 | 90.48847 | 34943 ft | 544 kts | 101° |
| 2026-05-08 02:35 | 22.40795 | 90.56954 | 34943 ft | 544 kts | 101° |
| 2026-05-08 02:36 | 22.39825 | 90.65056 | 34942 ft | 544 kts | 101° |
| 2026-05-08 02:36 | 22.38850 | 90.73169 | 34942 ft | 544 kts | 101° |
| 2026-05-08 02:37 | 22.37872 | 90.81277 | 34941 ft | 544 kts | 101° |
| 2026-05-08 02:37 | 22.36890 | 90.89385 | 34940 ft | 544 kts | 101° |
| 2026-05-08 02:38 | 22.35903 | 90.97488 | 34940 ft | 544 kts | 101° |
| 2026-05-08 02:38 | 22.35081 | 91.04231 | 34938 ft | 545 kts | 101° |
| 2026-05-08 02:39 | 22.34105 | 91.12345 | 34938 ft | 545 kts | 101° |
| 2026-05-08 02:39 | 22.33100 | 91.20454 | 34937 ft | 545 kts | 101° |
| 2026-05-08 02:40 | 22.32083 | 91.28612 | 34939 ft | 544 kts | 101° |
| 2026-05-08 02:40 | 22.31073 | 91.36709 | 34939 ft | 544 kts | 101° |
| 2026-05-08 02:41 | 22.30123 | 91.44812 | 34938 ft | 544 kts | 100° |
| 2026-05-08 02:41 | 22.29233 | 91.52932 | 34937 ft | 544 kts | 100° |
| 2026-05-08 02:42 | 22.28314 | 91.61041 | 34936 ft | 544 kts | 101° |
| 2026-05-08 02:42 | 22.27378 | 91.69151 | 34935 ft | 544 kts | 100° |
| 2026-05-08 02:43 | 22.26441 | 91.77252 | 34935 ft | 544 kts | 101° |
| 2026-05-08 02:43 | 22.26229 | 91.85417 | 34936 ft | 547 kts | 88° |
| 2026-05-08 02:44 | 22.27178 | 91.93581 | 34935 ft | 549 kts | 82° |
| 2026-05-08 02:44 | 22.28431 | 92.01713 | 34941 ft | 550 kts | 83° |
| 2026-05-08 02:45 | 22.29551 | 92.09882 | 34936 ft | 550 kts | 83° |
| 2026-05-08 02:45 | 22.30658 | 92.18049 | 34938 ft | 550 kts | 83° |
| 2026-05-08 02:46 | 22.31767 | 92.26216 | 34940 ft | 550 kts | 83° |
| 2026-05-08 02:46 | 22.32887 | 92.34386 | 34945 ft | 550 kts | 83° |
| 2026-05-08 02:47 | 22.34009 | 92.42554 | 34943 ft | 550 kts | 83° |
| 2026-05-08 02:47 | 22.35142 | 92.50717 | 34945 ft | 550 kts | 83° |
| 2026-05-08 02:48 | 22.36248 | 92.58903 | 34948 ft | 551 kts | 83° |
| 2026-05-08 02:48 | 22.37349 | 92.67085 | 34959 ft | 550 kts | 83° |
| 2026-05-08 02:49 | 22.38450 | 92.75270 | 34965 ft | 550 kts | 83° |
| 2026-05-08 02:49 | 22.39549 | 92.83449 | 34969 ft | 550 kts | 83° |
| 2026-05-08 02:50 | 22.40648 | 92.91690 | 34972 ft | 550 kts | 83° |
| 2026-05-08 02:50 | 22.41725 | 92.99820 | 34976 ft | 550 kts | 84° |
| 2026-05-08 02:51 | 22.42810 | 93.08050 | 34979 ft | 550 kts | 84° |
| 2026-05-08 02:51 | 22.43906 | 93.16228 | 34981 ft | 550 kts | 83° |
| 2026-05-08 02:52 | 22.45011 | 93.24409 | 34984 ft | 550 kts | 83° |
| 2026-05-08 02:52 | 22.46097 | 93.32591 | 34986 ft | 550 kts | 84° |
| 2026-05-08 02:53 | 22.47175 | 93.40779 | 34987 ft | 550 kts | 84° |
| 2026-05-08 02:53 | 22.48244 | 93.48960 | 34976 ft | 549 kts | 84° |
| 2026-05-08 02:54 | 22.49310 | 93.57131 | 34990 ft | 549 kts | 84° |
| 2026-05-08 02:54 | 22.50372 | 93.65303 | 34991 ft | 549 kts | 84° |
| 2026-05-08 02:55 | 22.51946 | 93.77526 | 34986 ft | 546 kts | 83° |
| 2026-05-08 02:56 | 22.52998 | 93.85660 | 34998 ft | 548 kts | 84° |
| 2026-05-08 02:56 | 22.54044 | 93.93840 | 34973 ft | 550 kts | 84° |
| 2026-05-08 02:56 | 22.54552 | 93.97944 | 34862 ft | 552 kts | 84° |
| 2026-05-08 02:57 | 22.55075 | 94.02046 | 35053 ft | 548 kts | 84° |
| 2026-05-08 02:57 | 22.56119 | 94.10199 | 34943 ft | 548 kts | 84° |
| 2026-05-08 02:58 | 22.57156 | 94.18369 | 34962 ft | 548 kts | 84° |
| 2026-05-08 02:58 | 22.58185 | 94.26541 | 34956 ft | 548 kts | 84° |
| 2026-05-08 02:59 | 22.59216 | 94.34769 | 34955 ft | 549 kts | 84° |
| 2026-05-08 02:59 | 22.60238 | 94.42953 | 34952 ft | 548 kts | 84° |
| 2026-05-08 03:00 | 22.61256 | 94.51134 | 34952 ft | 548 kts | 84° |
| 2026-05-08 03:00 | 22.62267 | 94.59314 | 34968 ft | 549 kts | 84° |
| 2026-05-08 03:01 | 22.63278 | 94.67512 | 34967 ft | 550 kts | 84° |
| 2026-05-08 03:01 | 22.64284 | 94.75709 | 34964 ft | 549 kts | 84° |
| 2026-05-08 03:02 | 22.65285 | 94.83907 | 34961 ft | 549 kts | 84° |
| 2026-05-08 03:02 | 22.66283 | 94.92103 | 34959 ft | 549 kts | 84° |
| 2026-05-08 03:03 | 22.67275 | 95.00298 | 34957 ft | 549 kts | 84° |
| 2026-05-08 03:03 | 22.68264 | 95.08495 | 34961 ft | 549 kts | 84° |
| 2026-05-08 03:04 | 22.69248 | 95.16690 | 34958 ft | 549 kts | 84° |
| 2026-05-08 03:04 | 22.70228 | 95.24886 | 34956 ft | 548 kts | 84° |
| 2026-05-08 03:05 | 22.71202 | 95.33068 | 34954 ft | 548 kts | 84° |
| 2026-05-08 03:05 | 22.72174 | 95.41263 | 34951 ft | 548 kts | 84° |
| 2026-05-08 03:06 | 22.73139 | 95.49448 | 34949 ft | 547 kts | 84° |
| 2026-05-08 03:06 | 22.74100 | 95.57626 | 34948 ft | 547 kts | 84° |
| 2026-05-08 03:07 | 22.75056 | 95.65803 | 34946 ft | 547 kts | 84° |
| 2026-05-08 03:07 | 22.76008 | 95.73982 | 34945 ft | 547 kts | 84° |
| 2026-05-08 03:08 | 22.76956 | 95.82159 | 34945 ft | 547 kts | 84° |
| 2026-05-08 03:08 | 22.77898 | 95.90326 | 34944 ft | 547 kts | 84° |
| 2026-05-08 03:09 | 22.78836 | 95.98498 | 34944 ft | 547 kts | 84° |
| 2026-05-08 03:09 | 22.79771 | 96.06674 | 34946 ft | 546 kts | 84° |
| 2026-05-08 03:10 | 22.80705 | 96.14883 | 34946 ft | 545 kts | 84° |
| 2026-05-08 03:10 | 22.81627 | 96.23026 | 34947 ft | 545 kts | 84° |
| 2026-05-08 03:11 | 22.82547 | 96.31183 | 34949 ft | 545 kts | 84° |
| 2026-05-08 03:11 | 22.83461 | 96.39331 | 34950 ft | 545 kts | 84° |
| 2026-05-08 03:12 | 22.84373 | 96.47490 | 34952 ft | 545 kts | 84° |
| 2026-05-08 03:12 | 22.85279 | 96.55646 | 34953 ft | 545 kts | 84° |
| 2026-05-08 03:13 | 22.86029 | 96.62426 | 34955 ft | 545 kts | 84° |
| 2026-05-08 03:13 | 22.86929 | 96.70587 | 34957 ft | 545 kts | 84° |
| 2026-05-08 03:14 | 22.87823 | 96.78742 | 34959 ft | 545 kts | 84° |
| 2026-05-08 03:14 | 22.88714 | 96.86901 | 34962 ft | 545 kts | 84° |
| 2026-05-08 03:15 | 22.89601 | 96.95066 | 34965 ft | 545 kts | 84° |
| 2026-05-08 03:15 | 22.90483 | 97.03227 | 34967 ft | 545 kts | 84° |
| 2026-05-08 03:16 | 22.91360 | 97.11381 | 34970 ft | 544 kts | 84° |
| 2026-05-08 03:16 | 22.92234 | 97.19540 | 34973 ft | 544 kts | 84° |
| 2026-05-08 03:17 | 22.93108 | 97.27745 | 34977 ft | 544 kts | 84° |
| 2026-05-08 03:17 | 22.93972 | 97.35897 | 34980 ft | 544 kts | 84° |
| 2026-05-08 03:18 | 22.94845 | 97.44047 | 34983 ft | 544 kts | 84° |
| 2026-05-08 03:18 | 22.95708 | 97.52205 | 34987 ft | 543 kts | 84° |
| 2026-05-08 03:19 | 22.96550 | 97.60346 | 34990 ft | 543 kts | 84° |
| 2026-05-08 03:19 | 22.97388 | 97.68489 | 34994 ft | 543 kts | 84° |
| 2026-05-08 03:20 | 22.98652 | 97.76557 | 35000 ft | 543 kts | 75° |
| 2026-05-08 03:20 | 23.01038 | 97.84338 | 35012 ft | 544 kts | 69° |
| 2026-05-08 03:21 | 23.03736 | 97.92009 | 35020 ft | 544 kts | 69° |
| 2026-05-08 03:21 | 23.06392 | 97.99706 | 35023 ft | 544 kts | 69° |
| 2026-05-08 03:22 | 23.09017 | 98.07410 | 35028 ft | 543 kts | 69° |
| 2026-05-08 03:22 | 23.11649 | 98.15091 | 35033 ft | 542 kts | 69° |
| 2026-05-08 03:23 | 23.14276 | 98.22770 | 35038 ft | 542 kts | 69° |
| 2026-05-08 03:23 | 23.16891 | 98.30467 | 35043 ft | 543 kts | 69° |
| 2026-05-08 03:24 | 23.19503 | 98.38176 | 35049 ft | 544 kts | 69° |
| 2026-05-08 03:24 | 23.22111 | 98.45890 | 35054 ft | 543 kts | 69° |
| 2026-05-08 03:25 | 23.24716 | 98.53609 | 35058 ft | 543 kts | 69° |
| 2026-05-08 03:25 | 23.27323 | 98.61316 | 35064 ft | 543 kts | 69° |
| 2026-05-08 03:26 | 23.29927 | 98.69032 | 35070 ft | 543 kts | 69° |
| 2026-05-08 03:26 | 23.32511 | 98.76756 | 35087 ft | 543 kts | 69° |
| 2026-05-08 03:27 | 23.35108 | 98.84535 | 35096 ft | 543 kts | 69° |
| 2026-05-08 03:27 | 23.37687 | 98.92258 | 35102 ft | 543 kts | 69° |
| 2026-05-08 03:28 | 23.40131 | 99.00023 | 35108 ft | 542 kts | 71° |
| 2026-05-08 03:28 | 23.42535 | 99.07806 | 35114 ft | 542 kts | 70° |
| 2026-05-08 03:29 | 23.44982 | 99.15571 | 35120 ft | 542 kts | 70° |
| 2026-05-08 03:29 | 23.47400 | 99.23353 | 35124 ft | 542 kts | 71° |
| 2026-05-08 03:30 | 23.51016 | 99.35032 | 35133 ft | 542 kts | 71° |
| 2026-05-08 03:31 | 23.57254 | 99.49924 | 35146 ft | 541 kts | 58° |
| 2026-05-08 03:32 | 23.63021 | 99.60485 | 35155 ft | 540 kts | 58° |
| 2026-05-08 03:32 | 23.66757 | 99.67601 | 35160 ft | 541 kts | 58° |
| 2026-05-08 03:33 | 23.70470 | 99.74737 | 35166 ft | 541 kts | 58° |
| 2026-05-08 03:33 | 23.74198 | 99.81859 | 35171 ft | 541 kts | 58° |
| 2026-05-08 03:34 | 23.77914 | 99.89008 | 35180 ft | 541 kts | 58° |
| 2026-05-08 03:34 | 23.81622 | 99.96163 | 35201 ft | 542 kts | 58° |
| 2026-05-08 03:35 | 23.85328 | 100.03327 | 35201 ft | 542 kts | 58° |
| 2026-05-08 03:35 | 23.89032 | 100.10500 | 35209 ft | 542 kts | 58° |
| 2026-05-08 03:36 | 23.92736 | 100.17681 | 35217 ft | 543 kts | 58° |
| 2026-05-08 03:36 | 23.96439 | 100.24871 | 35223 ft | 543 kts | 58° |
| 2026-05-08 03:37 | 24.00152 | 100.32051 | 35229 ft | 542 kts | 58° |
| 2026-05-08 03:37 | 24.03839 | 100.39244 | 35236 ft | 542 kts | 58° |
| 2026-05-08 03:38 | 24.07528 | 100.46458 | 35243 ft | 544 kts | 58° |
| 2026-05-08 03:38 | 24.11222 | 100.53683 | 35250 ft | 544 kts | 58° |
| 2026-05-08 03:39 | 24.14904 | 100.60970 | 35258 ft | 544 kts | 59° |
| 2026-05-08 03:39 | 24.18533 | 100.68236 | 35265 ft | 543 kts | 59° |
| 2026-05-08 03:40 | 24.22158 | 100.75501 | 35272 ft | 544 kts | 59° |
| 2026-05-08 03:40 | 24.25781 | 100.82771 | 35278 ft | 544 kts | 59° |
| 2026-05-08 03:41 | 24.29404 | 100.90039 | 35289 ft | 543 kts | 59° |
| 2026-05-08 03:41 | 24.33048 | 100.97297 | 35296 ft | 543 kts | 59° |
| 2026-05-08 03:42 | 24.36667 | 101.04559 | 35304 ft | 542 kts | 59° |
| 2026-05-08 03:42 | 24.40291 | 101.11839 | 35142 ft | 544 kts | 59° |
| 2026-05-08 03:42 | 24.42090 | 101.15470 | 35406 ft | 541 kts | 59° |
| 2026-05-08 03:43 | 24.43888 | 101.19100 | 35296 ft | 542 kts | 59° |
| 2026-05-08 03:43 | 24.47491 | 101.26369 | 35336 ft | 543 kts | 59° |
| 2026-05-08 03:44 | 24.51108 | 101.33648 | 35335 ft | 543 kts | 59° |
| 2026-05-08 03:44 | 24.54702 | 101.40942 | 35342 ft | 542 kts | 59° |
| 2026-05-08 03:45 | 24.58281 | 101.48221 | 35347 ft | 542 kts | 59° |
| 2026-05-08 03:45 | 24.61860 | 101.55499 | 35354 ft | 542 kts | 59° |
| 2026-05-08 03:46 | 24.65411 | 101.62812 | 35361 ft | 542 kts | 60° |
| 2026-05-08 03:46 | 24.68942 | 101.70130 | 35367 ft | 542 kts | 60° |
| 2026-05-08 03:47 | 24.72472 | 101.77455 | 35375 ft | 542 kts | 60° |
| 2026-05-08 03:47 | 24.75995 | 101.84779 | 35378 ft | 542 kts | 60° |
| 2026-05-08 03:48 | 24.79528 | 101.92110 | 35383 ft | 542 kts | 60° |
| 2026-05-08 03:48 | 24.82497 | 101.98236 | 35388 ft | 542 kts | 60° |
| 2026-05-08 03:49 | 24.86023 | 102.05561 | 35391 ft | 541 kts | 60° |
| 2026-05-08 03:49 | 24.89535 | 102.12882 | 35396 ft | 540 kts | 60° |
| 2026-05-08 03:50 | 24.93043 | 102.20207 | 35399 ft | 541 kts | 60° |
| 2026-05-08 03:50 | 24.96562 | 102.27521 | 35401 ft | 541 kts | 60° |
| 2026-05-08 03:51 | 25.00068 | 102.34881 | 35403 ft | 542 kts | 60° |
| 2026-05-08 03:51 | 25.03566 | 102.42240 | 35405 ft | 542 kts | 60° |
| 2026-05-08 03:52 | 25.07080 | 102.49586 | 35404 ft | 541 kts | 58° |
| 2026-05-08 03:52 | 25.11419 | 102.56330 | 35407 ft | 539 kts | 47° |
| 2026-05-08 03:53 | 25.16328 | 102.62564 | 35408 ft | 538 kts | 45° |
| 2026-05-08 03:53 | 25.21243 | 102.68782 | 35406 ft | 536 kts | 45° |
| 2026-05-08 03:54 | 25.26105 | 102.75032 | 35405 ft | 536 kts | 46° |
| 2026-05-08 03:54 | 25.30982 | 102.81347 | 35405 ft | 537 kts | 46° |
| 2026-05-08 03:55 | 25.35798 | 102.87590 | 35403 ft | 537 kts | 46° |
| 2026-05-08 03:55 | 25.40643 | 102.93949 | 35400 ft | 538 kts | 49° |
| 2026-05-08 03:56 | 25.44942 | 103.00731 | 35399 ft | 539 kts | 54° |
| 2026-05-08 03:56 | 25.48943 | 103.07758 | 35397 ft | 540 kts | 55° |
| 2026-05-08 03:57 | 25.53020 | 103.14749 | 35395 ft | 540 kts | 54° |
| 2026-05-08 03:57 | 25.57142 | 103.21704 | 35391 ft | 540 kts | 54° |
| 2026-05-08 03:58 | 25.61282 | 103.28644 | 35388 ft | 540 kts | 53° |
| 2026-05-08 03:58 | 25.65426 | 103.35585 | 35385 ft | 540 kts | 53° |
| 2026-05-08 03:59 | 25.69554 | 103.42534 | 35381 ft | 540 kts | 54° |
| 2026-05-08 03:59 | 25.73681 | 103.49496 | 35377 ft | 540 kts | 54° |
| 2026-05-08 04:00 | 25.77799 | 103.56456 | 35372 ft | 540 kts | 54° |
| 2026-05-08 04:00 | 25.81929 | 103.63417 | 35369 ft | 540 kts | 53° |
| 2026-05-08 04:01 | 25.86043 | 103.70384 | 35364 ft | 539 kts | 54° |
| 2026-05-08 04:01 | 25.90143 | 103.77362 | 35360 ft | 539 kts | 54° |
| 2026-05-08 04:02 | 25.94241 | 103.84344 | 35355 ft | 540 kts | 54° |
| 2026-05-08 04:02 | 25.98341 | 103.91331 | 35350 ft | 540 kts | 54° |
| 2026-05-08 04:03 | 26.02491 | 103.98279 | 35346 ft | 539 kts | 53° |
| 2026-05-08 04:03 | 26.08706 | 104.08714 | 35341 ft | 539 kts | 53° |
| 2026-05-08 04:04 | 26.12868 | 104.15725 | 35336 ft | 540 kts | 53° |
| 2026-05-08 04:04 | 26.17006 | 104.22703 | 35332 ft | 540 kts | 53° |
| 2026-05-08 04:05 | 26.21167 | 104.29666 | 35328 ft | 541 kts | 53° |
| 2026-05-08 04:05 | 26.25320 | 104.36662 | 35325 ft | 541 kts | 53° |
| 2026-05-08 04:06 | 26.29466 | 104.43667 | 35321 ft | 541 kts | 53° |
| 2026-05-08 04:06 | 26.33610 | 104.50684 | 35317 ft | 542 kts | 53° |
| 2026-05-08 04:07 | 26.37749 | 104.57705 | 35313 ft | 542 kts | 53° |
| 2026-05-08 04:07 | 26.41897 | 104.64752 | 35804 ft | 542 kts | 53° |
| 2026-05-08 04:08 | 26.43962 | 104.68264 | 36237 ft | 538 kts | 53° |
| 2026-05-08 04:08 | 26.46011 | 104.71750 | 36611 ft | 537 kts | 53° |
| 2026-05-08 04:08 | 26.48064 | 104.75224 | 36824 ft | 538 kts | 53° |
| 2026-05-08 04:08 | 26.50121 | 104.78713 | 37120 ft | 537 kts | 53° |
| 2026-05-08 04:09 | 26.52170 | 104.82209 | 37288 ft | 538 kts | 54° |
| 2026-05-08 04:09 | 26.54217 | 104.85711 | 37301 ft | 538 kts | 54° |
| 2026-05-08 04:09 | 26.58301 | 104.92710 | 37300 ft | 537 kts | 54° |
| 2026-05-08 04:10 | 26.62377 | 104.99699 | 37307 ft | 537 kts | 53° |
| 2026-05-08 04:10 | 26.66128 | 105.06933 | 37305 ft | 539 kts | 61° |
| 2026-05-08 04:11 | 26.69214 | 105.14653 | 37303 ft | 541 kts | 65° |
| 2026-05-08 04:11 | 26.72153 | 105.22412 | 37301 ft | 542 kts | 64° |
| 2026-05-08 04:12 | 26.75201 | 105.30132 | 37299 ft | 543 kts | 64° |
| 2026-05-08 04:12 | 26.78277 | 105.37849 | 37298 ft | 543 kts | 63° |
| 2026-05-08 04:13 | 26.81386 | 105.45548 | 37296 ft | 543 kts | 63° |
| 2026-05-08 04:13 | 26.84473 | 105.53252 | 37295 ft | 542 kts | 64° |
| 2026-05-08 04:14 | 26.87549 | 105.60965 | 37294 ft | 542 kts | 64° |
| 2026-05-08 04:14 | 26.90620 | 105.68685 | 37294 ft | 543 kts | 64° |
| 2026-05-08 04:15 | 26.93711 | 105.76409 | 37292 ft | 544 kts | 64° |
| 2026-05-08 04:15 | 26.96779 | 105.84161 | 37292 ft | 544 kts | 64° |
| 2026-05-08 04:16 | 26.99840 | 105.91926 | 37291 ft | 545 kts | 64° |
| 2026-05-08 04:16 | 27.02900 | 105.99696 | 37291 ft | 545 kts | 64° |
| 2026-05-08 04:17 | 27.06068 | 106.07423 | 37291 ft | 545 kts | 60° |
| 2026-05-08 04:17 | 27.09628 | 106.14927 | 37289 ft | 545 kts | 59° |
| 2026-05-08 04:18 | 27.13104 | 106.22488 | 37289 ft | 545 kts | 60° |
| 2026-05-08 04:18 | 27.16540 | 106.30079 | 37290 ft | 545 kts | 60° |
| 2026-05-08 04:19 | 27.19979 | 106.37672 | 37289 ft | 546 kts | 60° |
| 2026-05-08 04:19 | 27.23440 | 106.45258 | 37289 ft | 546 kts | 59° |
| 2026-05-08 04:20 | 27.26905 | 106.52856 | 37288 ft | 546 kts | 60° |
| 2026-05-08 04:20 | 27.30347 | 106.60472 | 37288 ft | 546 kts | 60° |
| 2026-05-08 04:21 | 27.33783 | 106.68088 | 37288 ft | 546 kts | 60° |
| 2026-05-08 04:21 | 27.37219 | 106.75705 | 37280 ft | 546 kts | 60° |
| 2026-05-08 04:22 | 27.40095 | 106.82095 | 37278 ft | 546 kts | 60° |
| 2026-05-08 04:22 | 27.43506 | 106.89737 | 37276 ft | 547 kts | 60° |
| 2026-05-08 04:23 | 27.46920 | 106.97394 | 37273 ft | 547 kts | 60° |
| 2026-05-08 04:23 | 27.50376 | 107.05025 | 37275 ft | 547 kts | 60° |
| 2026-05-08 04:24 | 27.53841 | 107.12658 | 37272 ft | 547 kts | 60° |
| 2026-05-08 04:24 | 27.57296 | 107.20301 | 37270 ft | 547 kts | 60° |
| 2026-05-08 04:25 | 27.60740 | 107.27957 | 37269 ft | 548 kts | 60° |
| 2026-05-08 04:25 | 27.64178 | 107.35630 | 37267 ft | 548 kts | 60° |
| 2026-05-08 04:26 | 27.67615 | 107.43312 | 37266 ft | 549 kts | 60° |
| 2026-05-08 04:26 | 27.71110 | 107.51034 | 37263 ft | 549 kts | 60° |
| 2026-05-08 04:27 | 27.74554 | 107.58738 | 37262 ft | 550 kts | 60° |
| 2026-05-08 04:27 | 27.77983 | 107.66452 | 37262 ft | 550 kts | 60° |
| 2026-05-08 04:28 | 27.81413 | 107.74173 | 37258 ft | 550 kts | 60° |
| 2026-05-08 04:28 | 27.84870 | 107.81893 | 37256 ft | 550 kts | 59° |
| 2026-05-08 04:29 | 27.88393 | 107.89581 | 37255 ft | 551 kts | 59° |
| 2026-05-08 04:29 | 27.91897 | 107.97277 | 37252 ft | 551 kts | 59° |
| 2026-05-08 04:30 | 27.95396 | 108.04994 | 37251 ft | 551 kts | 59° |
| 2026-05-08 04:30 | 27.98887 | 108.12702 | 37250 ft | 551 kts | 59° |
| 2026-05-08 04:31 | 28.02410 | 108.20397 | 37248 ft | 551 kts | 59° |
| 2026-05-08 04:31 | 28.05912 | 108.28111 | 37246 ft | 551 kts | 59° |
| 2026-05-08 04:32 | 28.09406 | 108.35842 | 37244 ft | 552 kts | 59° |
| 2026-05-08 04:32 | 28.12894 | 108.43578 | 37243 ft | 552 kts | 59° |
| 2026-05-08 04:33 | 28.16383 | 108.51333 | 37243 ft | 552 kts | 59° |
| 2026-05-08 04:33 | 28.19866 | 108.59088 | 37239 ft | 552 kts | 59° |
| 2026-05-08 04:34 | 28.23346 | 108.66852 | 37238 ft | 553 kts | 59° |
| 2026-05-08 04:34 | 28.26850 | 108.74686 | 37241 ft | 553 kts | 59° |
| 2026-05-08 04:35 | 28.30324 | 108.82462 | 37243 ft | 553 kts | 59° |
| 2026-05-08 04:35 | 28.33817 | 108.90245 | 37236 ft | 553 kts | 59° |
| 2026-05-08 04:36 | 28.37278 | 108.98047 | 37235 ft | 553 kts | 59° |
| 2026-05-08 04:36 | 28.40725 | 109.05836 | 37234 ft | 552 kts | 59° |
| 2026-05-08 04:37 | 28.44173 | 109.13630 | 37234 ft | 552 kts | 59° |
| 2026-05-08 04:37 | 28.47637 | 109.21423 | 37231 ft | 552 kts | 59° |
| 2026-05-08 04:38 | 28.51079 | 109.29232 | 37231 ft | 553 kts | 59° |
| 2026-05-08 04:38 | 28.54515 | 109.37057 | 37230 ft | 553 kts | 59° |
| 2026-05-08 04:39 | 28.57945 | 109.44879 | 37228 ft | 553 kts | 60° |
| 2026-05-08 04:39 | 28.60880 | 109.52981 | 37227 ft | 555 kts | 67° |
| 2026-05-08 04:40 | 28.63548 | 109.61223 | 37227 ft | 555 kts | 65° |
| 2026-05-08 04:40 | 28.66387 | 109.69407 | 37226 ft | 556 kts | 64° |
| 2026-05-08 04:41 | 28.69316 | 109.77550 | 37225 ft | 556 kts | 64° |
| 2026-05-08 04:41 | 28.72246 | 109.85749 | 37228 ft | 555 kts | 64° |
| 2026-05-08 04:42 | 28.75145 | 109.93902 | 37233 ft | 555 kts | 64° |
| 2026-05-08 04:42 | 28.78038 | 110.02057 | 37232 ft | 556 kts | 64° |
| 2026-05-08 04:43 | 28.80962 | 110.10199 | 37229 ft | 554 kts | 64° |
| 2026-05-08 04:43 | 28.83862 | 110.18343 | 37228 ft | 554 kts | 64° |
| 2026-05-08 04:44 | 28.86751 | 110.26504 | 37226 ft | 555 kts | 64° |
| 2026-05-08 04:44 | 28.89635 | 110.34674 | 37196 ft | 556 kts | 64° |
| 2026-05-08 04:45 | 28.92535 | 110.42847 | 37189 ft | 556 kts | 64° |
| 2026-05-08 04:45 | 28.95415 | 110.51038 | 37191 ft | 556 kts | 64° |
| 2026-05-08 04:46 | 28.98282 | 110.59250 | 37187 ft | 557 kts | 64° |
| 2026-05-08 04:46 | 29.01146 | 110.67468 | 37189 ft | 557 kts | 64° |
| 2026-05-08 04:47 | 29.04017 | 110.75684 | 37189 ft | 557 kts | 64° |
| 2026-05-08 04:47 | 29.06929 | 110.83883 | 37188 ft | 557 kts | 64° |
| 2026-05-08 04:48 | 29.09823 | 110.92083 | 37189 ft | 557 kts | 64° |
| 2026-05-08 04:48 | 29.12714 | 111.00300 | 37189 ft | 557 kts | 64° |
| 2026-05-08 04:49 | 29.15597 | 111.08511 | 37188 ft | 557 kts | 64° |
| 2026-05-08 04:49 | 29.18518 | 111.16726 | 37188 ft | 557 kts | 64° |
| 2026-05-08 04:50 | 29.21410 | 111.24940 | 37189 ft | 557 kts | 64° |
| 2026-05-08 04:50 | 29.24302 | 111.33162 | 37189 ft | 557 kts | 64° |
| 2026-05-08 04:51 | 29.27193 | 111.41403 | 37189 ft | 558 kts | 64° |
| 2026-05-08 04:51 | 29.30058 | 111.49661 | 37189 ft | 558 kts | 64° |
| 2026-05-08 04:52 | 29.32938 | 111.57977 | 37190 ft | 558 kts | 64° |
| 2026-05-08 04:52 | 29.36056 | 111.66099 | 37190 ft | 554 kts | 56° |
| 2026-05-08 04:53 | 29.40139 | 111.73561 | 37191 ft | 551 kts | 50° |
| 2026-05-08 04:53 | 29.44422 | 111.80822 | 37190 ft | 549 kts | 50° |
| 2026-05-08 04:54 | 29.48613 | 111.88129 | 37191 ft | 548 kts | 51° |
| 2026-05-08 04:54 | 29.52785 | 111.95459 | 37192 ft | 549 kts | 51° |
| 2026-05-08 04:55 | 29.56272 | 112.01554 | 37193 ft | 549 kts | 50° |
| 2026-05-08 04:55 | 29.60485 | 112.08894 | 37193 ft | 550 kts | 51° |
| 2026-05-08 04:56 | 29.64679 | 112.16307 | 37195 ft | 550 kts | 51° |
| 2026-05-08 04:56 | 29.68837 | 112.23676 | 37195 ft | 550 kts | 51° |
| 2026-05-08 04:57 | 29.72999 | 112.31052 | 37196 ft | 550 kts | 51° |
| 2026-05-08 04:57 | 29.77147 | 112.38449 | 37198 ft | 550 kts | 51° |
| 2026-05-08 04:58 | 29.81279 | 112.45853 | 37200 ft | 550 kts | 51° |
| 2026-05-08 04:58 | 29.85410 | 112.53271 | 37201 ft | 550 kts | 51° |
| 2026-05-08 04:59 | 29.89533 | 112.60689 | 37203 ft | 549 kts | 51° |
| 2026-05-08 04:59 | 29.93656 | 112.68089 | 37205 ft | 548 kts | 51° |
| 2026-05-08 05:00 | 29.97786 | 112.75471 | 37207 ft | 548 kts | 51° |
| 2026-05-08 05:00 | 30.01898 | 112.82877 | 37209 ft | 548 kts | 51° |
| 2026-05-08 05:01 | 30.06022 | 112.90294 | 37210 ft | 549 kts | 51° |
| 2026-05-08 05:01 | 30.10140 | 112.97733 | 37212 ft | 550 kts | 51° |
| 2026-05-08 05:02 | 30.14239 | 113.05188 | 37215 ft | 550 kts | 51° |
| 2026-05-08 05:02 | 30.18329 | 113.12639 | 37217 ft | 549 kts | 51° |
| 2026-05-08 05:03 | 30.22416 | 113.20085 | 37219 ft | 548 kts | 51° |
| 2026-05-08 05:03 | 30.26567 | 113.27473 | 37219 ft | 548 kts | 50° |
| 2026-05-08 05:04 | 30.30713 | 113.34866 | 37222 ft | 547 kts | 51° |
| 2026-05-08 05:04 | 30.34842 | 113.42259 | 37224 ft | 547 kts | 51° |
| 2026-05-08 05:05 | 30.38997 | 113.49711 | 37225 ft | 547 kts | 51° |
| 2026-05-08 05:05 | 30.43131 | 113.57040 | 37227 ft | 547 kts | 50° |
| 2026-05-08 05:06 | 30.47289 | 113.64489 | 37228 ft | 547 kts | 51° |
| 2026-05-08 05:06 | 30.51403 | 113.71915 | 37229 ft | 547 kts | 51° |
| 2026-05-08 05:07 | 30.55516 | 113.79349 | 37229 ft | 547 kts | 51° |
| 2026-05-08 05:07 | 30.59630 | 113.86774 | 37230 ft | 547 kts | 51° |
| 2026-05-08 05:08 | 30.60246 | 113.87881 | 37229 ft | 547 kts | 51° |